createdAt,value
2024-04-02T00:00:52.768Z,993.21
2024-04-02T00:01:52.752Z,993.22
2024-04-02T00:02:52.742Z,993.21
2024-04-02T00:03:52.769Z,993.23
2024-04-02T00:04:52.727Z,993.28
2024-04-02T00:05:52.728Z,993.26
2024-04-02T00:06:52.712Z,993.31
2024-04-02T00:07:52.693Z,993.24
2024-04-02T00:08:52.681Z,993.21
2024-04-02T00:09:52.681Z,993.27
2024-04-02T00:10:52.664Z,993.30
2024-04-02T00:11:52.664Z,993.29
2024-04-02T00:12:52.635Z,993.27
2024-04-02T00:13:52.627Z,993.29
2024-04-02T00:14:52.615Z,993.25
2024-04-02T00:15:52.605Z,993.33
2024-04-02T00:16:52.596Z,993.27
2024-04-02T00:17:52.578Z,993.31
2024-04-02T00:18:52.566Z,993.35
2024-04-02T00:19:52.557Z,993.28
2024-04-02T00:20:52.545Z,993.33
2024-04-02T00:21:52.557Z,993.34
2024-04-02T00:22:52.534Z,993.31
2024-04-02T00:23:52.517Z,993.39
2024-04-02T00:24:52.499Z,993.36
2024-04-02T00:25:52.501Z,993.38
2024-04-02T00:26:52.480Z,993.38
2024-04-02T00:27:52.482Z,993.39
2024-04-02T00:28:52.459Z,993.25
2024-04-02T00:29:52.449Z,993.26
2024-04-02T00:30:52.448Z,993.38
2024-04-02T00:31:52.431Z,993.14
2024-04-02T00:32:52.441Z,993.22
2024-04-02T00:33:52.415Z,993.27
2024-04-02T00:34:52.426Z,993.25
2024-04-02T00:35:52.382Z,993.33
2024-04-02T00:36:52.376Z,993.34
2024-04-02T00:37:52.367Z,993.31
2024-04-02T00:38:52.374Z,993.32
2024-04-02T00:39:52.362Z,993.32
2024-04-02T00:40:52.331Z,993.31
2024-04-02T00:41:52.341Z,993.31
2024-04-02T00:42:52.310Z,993.30
2024-04-02T00:43:52.310Z,993.29
2024-04-02T00:44:52.285Z,993.35
2024-04-02T00:45:52.274Z,993.34
2024-04-02T00:46:52.276Z,993.45
2024-04-02T00:47:52.288Z,993.47
2024-04-02T00:48:52.254Z,993.42
2024-04-02T00:49:52.232Z,993.40
2024-04-02T00:50:52.232Z,993.48
2024-04-02T00:51:52.217Z,993.55
2024-04-02T00:52:52.216Z,993.54
2024-04-02T00:53:52.201Z,993.56
2024-04-02T00:54:52.194Z,993.57
2024-04-02T00:55:52.173Z,993.58
2024-04-02T00:56:52.154Z,993.62
2024-04-02T00:57:52.146Z,993.62
2024-04-02T00:58:52.131Z,993.60
2024-04-02T00:59:52.134Z,993.69
2024-04-02T01:00:52.118Z,993.69
2024-04-02T01:01:52.107Z,993.67
2024-04-02T01:02:52.091Z,993.75
2024-04-02T01:03:52.081Z,993.73
2024-04-02T01:04:52.081Z,993.76
2024-04-02T01:05:52.068Z,993.76
2024-04-02T01:06:52.050Z,993.72
2024-04-02T01:07:52.042Z,993.68
2024-04-02T01:08:52.027Z,993.70
2024-04-02T01:09:52.029Z,993.71
2024-04-02T01:10:52.008Z,993.68
2024-04-02T01:11:51.998Z,993.69
2024-04-02T01:12:51.983Z,993.67
2024-04-02T01:13:51.985Z,993.70
2024-04-02T01:14:51.969Z,993.67
2024-04-02T01:15:51.955Z,993.64
2024-04-02T01:16:51.962Z,993.64
2024-04-02T01:17:51.942Z,993.57
2024-04-02T01:18:51.934Z,993.53
2024-04-02T01:19:51.936Z,993.63
2024-04-02T01:20:51.897Z,993.66
2024-04-02T01:21:51.895Z,993.66
2024-04-02T01:22:51.885Z,993.65
2024-04-02T01:23:51.871Z,993.65
2024-04-02T01:24:58.594Z,993.65
2024-04-02T01:25:51.852Z,993.69
2024-04-02T01:26:51.834Z,993.67
2024-04-02T01:27:51.819Z,993.73
2024-04-02T01:28:51.831Z,993.77
2024-04-02T01:29:51.804Z,993.73
2024-04-02T01:30:51.803Z,993.71
2024-04-02T01:31:51.773Z,993.74
2024-04-02T01:32:51.767Z,993.68
2024-04-02T01:33:51.757Z,993.71
2024-04-02T01:34:51.753Z,993.76
2024-04-02T01:35:51.763Z,993.82
2024-04-02T01:36:51.725Z,993.75
2024-04-02T01:37:51.726Z,993.85
2024-04-02T01:38:51.710Z,993.81
2024-04-02T01:39:51.700Z,993.85
2024-04-02T01:40:51.693Z,993.88
2024-04-02T01:41:51.689Z,993.86
2024-04-02T01:42:51.662Z,993.90
2024-04-02T01:43:51.649Z,993.85
2024-04-02T01:44:51.672Z,993.85
2024-04-02T01:45:51.635Z,993.88
2024-04-02T01:46:51.629Z,993.88
2024-04-02T01:47:51.665Z,993.89
2024-04-02T01:48:51.600Z,993.97
2024-04-02T01:49:51.585Z,993.96
2024-04-02T01:50:51.577Z,994.04
2024-04-02T01:51:51.597Z,993.99
2024-04-02T01:52:51.570Z,993.99
2024-04-02T01:53:51.554Z,994.04
2024-04-02T01:54:51.541Z,993.99
2024-04-02T01:55:51.523Z,994.06
2024-04-02T01:56:51.534Z,994.04
2024-04-02T01:57:51.504Z,994.13
2024-04-02T01:58:51.505Z,994.12
2024-04-02T01:59:51.488Z,994.04
2024-04-02T02:00:51.487Z,994.10
2024-04-02T02:01:51.460Z,994.12
2024-04-02T02:02:51.518Z,994.04
2024-04-02T02:03:51.433Z,994.01
2024-04-02T02:04:51.424Z,994.01
2024-04-02T02:05:51.409Z,994.04
2024-04-02T02:06:51.402Z,994.03
2024-04-02T02:07:51.421Z,994.06
2024-04-02T02:08:51.383Z,994.05
2024-04-02T02:09:51.367Z,994.08
2024-04-02T02:10:51.359Z,994.12
2024-04-02T02:11:51.377Z,994.10
2024-04-02T02:12:51.351Z,994.15
2024-04-02T02:13:51.334Z,994.16
2024-04-02T02:14:51.321Z,994.11
2024-04-02T02:15:51.307Z,994.14
2024-04-02T02:16:51.296Z,994.15
2024-04-02T02:17:51.360Z,994.15
2024-04-02T02:18:51.275Z,994.16
2024-04-02T02:19:51.278Z,994.19
2024-04-02T02:20:51.250Z,994.21
2024-04-02T02:21:51.236Z,994.26
2024-04-02T02:22:51.540Z,994.24
2024-04-02T02:23:51.230Z,994.32
2024-04-02T02:24:51.229Z,994.20
2024-04-02T02:25:51.193Z,994.25
2024-04-02T02:26:51.190Z,994.23
2024-04-02T02:27:51.173Z,994.30
2024-04-02T02:28:51.178Z,994.28
2024-04-02T02:29:51.143Z,994.28
2024-04-02T02:30:51.137Z,994.27
2024-04-02T02:31:51.151Z,994.31
2024-04-02T02:32:51.130Z,994.28
2024-04-02T02:33:51.117Z,994.30
2024-04-02T02:34:51.095Z,994.25
2024-04-02T02:35:51.077Z,994.26
2024-04-02T02:36:51.075Z,994.24
2024-04-02T02:37:51.056Z,994.28
2024-04-02T02:38:51.069Z,994.32
2024-04-02T02:39:51.046Z,994.34
2024-04-02T02:40:51.027Z,994.35
2024-04-02T02:41:51.025Z,994.32
2024-04-02T02:42:51.008Z,994.29
2024-04-02T02:43:51.011Z,994.33
2024-04-02T02:44:50.985Z,994.31
2024-04-02T02:45:50.993Z,994.35
2024-04-02T02:46:50.964Z,994.32
2024-04-02T02:47:50.948Z,994.30
2024-04-02T02:48:50.944Z,994.28
2024-04-02T02:49:50.955Z,994.24
2024-04-02T02:50:50.925Z,994.16
2024-04-02T02:51:50.915Z,994.21
2024-04-02T02:52:50.899Z,994.18
2024-04-02T02:53:50.886Z,994.20
2024-04-02T02:54:50.875Z,994.24
2024-04-02T02:55:50.875Z,994.22
2024-04-02T02:56:50.850Z,994.22
2024-04-02T02:57:50.840Z,994.22
2024-04-02T02:58:50.833Z,994.23
2024-04-02T02:59:50.829Z,994.23
2024-04-02T03:00:50.820Z,994.26
2024-04-02T03:01:50.807Z,994.24
2024-04-02T03:02:50.794Z,994.30
2024-04-02T03:03:50.777Z,994.33
2024-04-02T03:04:50.766Z,994.33
2024-04-02T03:05:50.754Z,994.34
2024-04-02T03:06:50.811Z,994.34
2024-04-02T03:07:50.743Z,994.40
2024-04-02T03:08:50.723Z,994.38
2024-04-02T03:09:50.725Z,994.37
2024-04-02T03:10:50.714Z,994.42
2024-04-02T03:11:50.729Z,994.41
2024-04-02T03:12:50.685Z,994.44
2024-04-02T03:13:50.670Z,994.44
2024-04-02T03:14:50.666Z,994.40
2024-04-02T03:15:50.647Z,994.41
2024-04-02T03:16:50.641Z,994.40
2024-04-02T03:17:50.664Z,994.36
2024-04-02T03:18:50.625Z,994.39
2024-04-02T03:19:50.605Z,994.41
2024-04-02T03:20:50.595Z,994.37
2024-04-02T03:21:50.582Z,994.38
2024-04-02T03:22:50.590Z,994.43
2024-04-02T03:23:50.578Z,994.44
2024-04-02T03:24:50.554Z,994.47
2024-04-02T03:25:50.565Z,994.44
2024-04-02T03:26:50.538Z,994.46
2024-04-02T03:27:50.535Z,994.41
2024-04-02T03:28:50.535Z,994.42
2024-04-02T03:29:50.503Z,994.44
2024-04-02T03:30:50.493Z,994.41
2024-04-02T03:31:50.480Z,994.41
2024-04-02T03:32:50.476Z,994.38
2024-04-02T03:33:50.455Z,994.40
2024-04-02T03:34:50.448Z,994.35
2024-04-02T03:35:50.443Z,994.42
2024-04-02T03:36:50.437Z,994.36
2024-04-02T03:37:50.436Z,994.32
2024-04-02T03:38:50.405Z,994.30
2024-04-02T03:39:50.400Z,994.35
2024-04-02T03:40:50.383Z,994.33
2024-04-02T03:41:50.370Z,994.35
2024-04-02T03:42:50.374Z,994.37
2024-04-02T03:43:50.374Z,994.39
2024-04-02T03:44:50.341Z,994.36
2024-04-02T03:45:50.333Z,994.42
2024-04-02T03:46:50.325Z,994.42
2024-04-02T03:47:50.323Z,994.41
2024-04-02T03:48:50.309Z,994.39
2024-04-02T03:49:50.286Z,994.41
2024-04-02T03:50:50.302Z,994.40
2024-04-02T03:51:50.263Z,994.41
2024-04-02T03:52:50.274Z,994.47
2024-04-02T03:53:50.250Z,994.47
2024-04-02T03:54:50.235Z,994.49
2024-04-02T03:55:50.219Z,994.50
2024-04-02T03:56:50.214Z,994.51
2024-04-02T03:57:50.210Z,994.49
2024-04-02T03:58:50.198Z,994.50
2024-04-02T03:59:50.183Z,994.50
2024-04-02T04:00:50.194Z,994.56
2024-04-02T04:01:50.156Z,994.54
2024-04-02T04:02:50.153Z,994.56
2024-04-02T04:03:50.136Z,994.60
2024-04-02T04:04:50.127Z,994.61
2024-04-02T04:05:50.124Z,994.61
2024-04-02T04:06:50.118Z,994.58
2024-04-02T04:07:50.100Z,994.64
2024-04-02T04:08:50.090Z,994.64
2024-04-02T04:09:50.081Z,994.67
2024-04-02T04:10:50.085Z,994.67
2024-04-02T04:11:50.049Z,994.59
2024-04-02T04:12:50.053Z,994.64
2024-04-02T04:13:50.023Z,994.70
2024-04-02T04:14:50.018Z,994.66
2024-04-02T04:15:50.033Z,994.69
2024-04-02T04:16:50.017Z,994.70
2024-04-02T04:17:49.982Z,994.69
2024-04-02T04:18:49.970Z,994.69
2024-04-02T04:19:49.963Z,994.70
2024-04-02T04:20:49.954Z,994.77
2024-04-02T04:21:49.952Z,994.79
2024-04-02T04:22:49.930Z,994.80
2024-04-02T04:23:49.928Z,994.82
2024-04-02T04:24:49.914Z,994.78
2024-04-02T04:25:49.895Z,994.80
2024-04-02T04:26:49.894Z,994.80
2024-04-02T04:27:49.872Z,994.76
2024-04-02T04:28:49.861Z,994.79
2024-04-02T04:29:52.223Z,994.76
2024-04-02T04:30:49.842Z,994.76
2024-04-02T04:31:49.842Z,994.79
2024-04-02T04:32:49.823Z,994.75
2024-04-02T04:33:49.803Z,994.76
2024-04-02T04:34:49.791Z,994.84
2024-04-02T04:35:49.851Z,994.81
2024-04-02T04:36:49.780Z,994.83
2024-04-02T04:37:49.769Z,994.87
2024-04-02T04:38:49.767Z,994.84
2024-04-02T04:39:49.742Z,994.85
2024-04-02T04:40:49.733Z,994.83
2024-04-02T04:41:49.724Z,994.85
2024-04-02T04:42:49.714Z,994.87
2024-04-02T04:43:49.735Z,994.91
2024-04-02T04:44:49.691Z,994.88
2024-04-02T04:45:49.670Z,994.87
2024-04-02T04:46:49.667Z,994.85
2024-04-02T04:47:49.648Z,994.86
2024-04-02T04:48:49.664Z,994.84
2024-04-02T04:49:49.644Z,994.85
2024-04-02T04:50:49.663Z,994.80
2024-04-02T04:51:49.604Z,994.79
2024-04-02T04:52:49.600Z,994.80
2024-04-02T04:53:49.591Z,994.81
2024-04-02T04:54:49.583Z,994.79
2024-04-02T04:55:49.561Z,994.84
2024-04-02T04:56:49.566Z,994.81
2024-04-02T04:57:51.563Z,994.83
2024-04-02T04:58:49.540Z,994.87
2024-04-02T04:59:49.538Z,994.89
2024-04-02T05:00:49.522Z,994.88
2024-04-02T05:01:49.513Z,994.91
2024-04-02T05:02:49.490Z,994.84
2024-04-02T05:03:49.485Z,994.88
2024-04-02T05:04:49.474Z,994.87
2024-04-02T05:05:49.453Z,994.90
2024-04-02T05:06:49.470Z,994.89
2024-04-02T05:07:49.434Z,994.93
2024-04-02T05:08:52.493Z,994.96
2024-04-02T05:09:49.411Z,994.92
2024-04-02T05:10:49.408Z,994.94
2024-04-02T05:11:49.401Z,994.95
2024-04-02T05:12:49.380Z,994.99
2024-04-02T05:13:49.367Z,994.90
2024-04-02T05:14:49.364Z,994.97
2024-04-02T05:15:49.342Z,994.98
2024-04-02T05:16:49.369Z,994.97
2024-04-02T05:17:49.328Z,994.98
2024-04-02T05:18:49.318Z,995.00
2024-04-02T05:19:49.298Z,994.99
2024-04-02T05:20:49.292Z,995.05
2024-04-02T05:21:49.302Z,995.03
2024-04-02T05:22:49.276Z,995.00
2024-04-02T05:23:49.255Z,995.04
2024-04-02T05:24:49.249Z,995.05
2024-04-02T05:25:49.260Z,994.97
2024-04-02T05:26:49.285Z,995.06
2024-04-02T05:27:49.227Z,995.07
2024-04-02T05:28:49.206Z,995.02
2024-04-02T05:29:49.190Z,995.08
2024-04-02T05:30:49.198Z,995.07
2024-04-02T05:31:49.176Z,995.08
2024-04-02T05:32:49.161Z,995.08
2024-04-02T05:33:49.147Z,995.07
2024-04-02T05:34:49.142Z,995.12
2024-04-02T05:35:49.120Z,995.14
2024-04-02T05:36:49.129Z,995.15
2024-04-02T05:37:49.129Z,995.05
2024-04-02T05:38:49.101Z,995.11
2024-04-02T05:39:49.084Z,995.20
2024-04-02T05:40:49.070Z,995.17
2024-04-02T05:41:49.059Z,995.24
2024-04-02T05:42:49.073Z,995.16
2024-04-02T05:43:49.039Z,995.20
2024-04-02T05:44:49.024Z,995.15
2024-04-02T05:45:49.031Z,995.16
2024-04-02T05:46:49.006Z,995.14
2024-04-02T05:47:49.000Z,995.16
2024-04-02T05:48:48.990Z,995.18
2024-04-02T05:49:48.977Z,995.19
2024-04-02T05:50:48.964Z,995.12
2024-04-02T05:51:48.957Z,995.16
2024-04-02T05:52:48.956Z,995.16
2024-04-02T05:53:48.929Z,995.27
2024-04-02T05:54:48.929Z,995.28
2024-04-02T05:55:48.901Z,995.20
2024-04-02T05:56:48.907Z,995.26
2024-04-02T05:57:48.898Z,995.23
2024-04-02T05:58:48.882Z,995.15
2024-04-02T05:59:48.857Z,995.19
2024-04-02T06:00:48.879Z,995.16
2024-04-02T06:01:48.843Z,995.23
2024-04-02T06:02:48.835Z,995.29
2024-04-02T06:03:48.815Z,995.14
2024-04-02T06:04:48.862Z,995.20
2024-04-02T06:05:48.815Z,995.23
2024-04-02T06:06:48.811Z,995.21
2024-04-02T06:07:48.785Z,995.24
2024-04-02T06:08:48.765Z,995.07
2024-04-02T06:09:48.750Z,995.19
2024-04-02T06:10:48.759Z,995.23
2024-04-02T06:11:48.738Z,995.16
2024-04-02T06:12:48.733Z,995.17
2024-04-02T06:13:48.713Z,995.19
2024-04-02T06:14:48.702Z,995.19
2024-04-02T06:15:48.715Z,995.25
2024-04-02T06:16:48.690Z,995.16
2024-04-02T06:17:48.669Z,995.19
2024-04-02T06:18:48.686Z,995.14
2024-04-02T06:19:48.642Z,995.11
2024-04-02T06:20:48.638Z,995.14
2024-04-02T06:21:48.636Z,995.16
2024-04-02T06:22:48.613Z,995.22
2024-04-02T06:23:48.644Z,995.17
2024-04-02T06:24:48.589Z,995.17
2024-04-02T06:25:48.583Z,995.12
2024-04-02T06:26:48.601Z,995.08
2024-04-02T06:27:48.559Z,995.09
2024-04-02T06:28:48.570Z,995.08
2024-04-02T06:29:49.166Z,994.96
2024-04-02T06:30:48.527Z,995.14
2024-04-02T06:31:48.523Z,995.05
2024-04-02T06:32:48.506Z,995.05
2024-04-02T06:33:48.496Z,995.17
2024-04-02T06:34:48.503Z,994.99
2024-04-02T06:35:48.471Z,995.08
2024-04-02T06:36:48.462Z,995.15
2024-04-02T06:37:48.450Z,995.06
2024-04-02T06:38:48.438Z,995.10
2024-04-02T06:39:48.452Z,995.09
2024-04-02T06:40:48.434Z,995.12
2024-04-02T06:41:48.417Z,995.22
2024-04-02T06:42:48.410Z,995.09
2024-04-02T06:43:48.384Z,995.14
2024-04-02T06:44:48.392Z,995.19
2024-04-02T06:45:48.372Z,995.09
2024-04-02T06:46:50.496Z,995.18
2024-04-02T06:47:48.345Z,995.22
2024-04-02T06:48:48.338Z,995.11
2024-04-02T06:49:48.322Z,995.11
2024-04-02T06:50:48.326Z,995.15
2024-04-02T06:51:48.308Z,995.26
2024-04-02T06:52:48.312Z,995.21
2024-04-02T06:53:48.277Z,995.24
2024-04-02T06:54:48.261Z,995.21
2024-04-02T06:55:48.291Z,995.30
2024-04-02T06:56:48.252Z,995.26
2024-04-02T06:57:48.246Z,995.29
2024-04-02T06:58:48.250Z,995.22
2024-04-02T06:59:50.651Z,995.36
2024-04-02T07:00:48.200Z,995.39
2024-04-02T07:01:48.189Z,995.43
2024-04-02T07:02:48.177Z,995.27
2024-04-02T07:03:48.193Z,995.27
2024-04-02T07:04:48.158Z,995.38
2024-04-02T07:05:48.155Z,995.39
2024-04-02T07:06:48.130Z,995.44
2024-04-02T07:07:48.447Z,995.52
2024-04-02T07:08:48.131Z,995.40
2024-04-02T07:09:48.778Z,995.35
2024-04-02T07:10:48.087Z,995.43
2024-04-02T07:11:48.090Z,995.48
2024-04-02T07:12:48.073Z,995.45
2024-04-02T07:13:48.078Z,995.60
2024-04-02T07:14:48.056Z,995.36
2024-04-02T07:15:48.038Z,995.37
2024-04-02T07:16:48.030Z,995.43
2024-04-02T07:17:48.014Z,995.47
2024-04-02T07:18:48.003Z,995.56
2024-04-02T07:19:48.017Z,995.41
2024-04-02T07:20:49.759Z,995.48
2024-04-02T07:21:47.976Z,995.48
2024-04-02T07:22:48.001Z,995.50
2024-04-02T07:23:47.953Z,995.46
2024-04-02T07:24:47.954Z,995.44
2024-04-02T07:25:47.935Z,995.48
2024-04-02T07:26:47.921Z,995.57
2024-04-02T07:27:47.915Z,995.45
2024-04-02T07:28:47.901Z,995.61
2024-04-02T07:29:47.904Z,995.64
2024-04-02T07:30:47.879Z,995.60
2024-04-02T07:31:47.909Z,995.54
2024-04-02T07:32:47.869Z,995.56
2024-04-02T07:33:47.869Z,995.67
2024-04-02T07:34:47.844Z,995.66
2024-04-02T07:35:47.848Z,995.69
2024-04-02T07:36:47.834Z,995.68
2024-04-02T07:37:47.822Z,995.58
2024-04-02T07:38:47.795Z,995.77
2024-04-02T07:39:47.892Z,995.74
2024-04-02T07:40:47.765Z,995.82
2024-04-02T07:41:47.775Z,995.90
2024-04-02T07:42:47.760Z,995.79
2024-04-02T07:43:47.770Z,995.87
2024-04-02T07:44:47.736Z,995.96
2024-04-02T07:45:47.738Z,995.86
2024-04-02T07:46:47.701Z,995.97
2024-04-02T07:47:47.705Z,995.92
2024-04-02T07:48:47.702Z,995.96
2024-04-02T07:49:47.677Z,996.00
2024-04-02T07:50:47.658Z,995.94
2024-04-02T07:51:47.650Z,995.92
2024-04-02T07:52:47.633Z,995.94
2024-04-02T07:53:47.838Z,996.04
2024-04-02T07:54:47.621Z,996.08
2024-04-02T07:55:47.618Z,996.07
2024-04-02T07:56:47.630Z,996.13
2024-04-02T07:57:47.581Z,996.16
2024-04-02T07:58:47.585Z,996.16
2024-04-02T07:59:47.564Z,996.21
2024-04-02T08:00:47.591Z,996.20
2024-04-02T08:01:47.538Z,996.26
2024-04-02T08:02:47.523Z,996.20
2024-04-02T08:03:47.522Z,996.21
2024-04-02T08:04:47.509Z,996.15
2024-04-02T08:05:47.496Z,996.21
2024-04-02T08:06:47.503Z,996.21
2024-04-02T08:07:47.471Z,996.25
2024-04-02T08:08:47.490Z,996.22
2024-04-02T08:09:47.450Z,996.20
2024-04-02T08:10:47.461Z,996.18
2024-04-02T08:11:47.439Z,996.25
2024-04-02T08:12:47.424Z,996.18
2024-04-02T08:13:47.411Z,996.23
2024-04-02T08:14:47.498Z,996.21
2024-04-02T08:15:47.390Z,996.28
2024-04-02T08:16:47.382Z,996.23
2024-04-02T08:17:47.362Z,996.22
2024-04-02T08:18:47.386Z,996.21
2024-04-02T08:19:47.356Z,996.24
2024-04-02T08:20:47.325Z,996.17
2024-04-02T08:21:47.339Z,996.17
2024-04-02T08:22:47.313Z,996.21
2024-04-02T08:23:47.304Z,996.29
2024-04-02T08:24:47.280Z,996.22
2024-04-02T08:25:47.283Z,996.20
2024-04-02T08:26:47.274Z,996.21
2024-04-02T08:27:47.267Z,996.21
2024-04-02T08:28:47.279Z,996.24
2024-04-02T08:29:47.233Z,996.13
2024-04-02T08:30:47.226Z,996.17
2024-04-02T08:31:47.209Z,996.22
2024-04-02T08:32:47.943Z,996.16
2024-04-02T08:33:47.204Z,996.20
2024-04-02T08:34:47.186Z,996.29
2024-04-02T08:35:47.164Z,996.18
2024-04-02T08:36:47.148Z,996.23
2024-04-02T08:37:47.144Z,996.20
2024-04-02T08:38:47.139Z,996.43
2024-04-02T08:39:47.129Z,996.21
2024-04-02T08:40:47.111Z,996.27
2024-04-02T08:41:47.105Z,996.29
2024-04-02T08:43:47.122Z,996.31
2024-04-02T08:44:47.083Z,996.26
2024-04-02T08:45:47.062Z,996.27
2024-04-02T08:46:47.052Z,996.26
2024-04-02T08:47:47.040Z,996.30
2024-04-02T08:48:47.042Z,996.32
2024-04-02T08:49:47.025Z,996.30
2024-04-02T08:50:47.011Z,996.39
2024-04-02T08:51:47.018Z,996.31
2024-04-02T08:52:47.004Z,996.30
2024-04-02T08:53:46.991Z,996.30
2024-04-02T08:54:46.979Z,996.40
2024-04-02T08:55:46.986Z,996.37
2024-04-02T08:56:46.945Z,996.33
2024-04-02T08:57:46.931Z,996.37
2024-04-02T08:58:46.926Z,996.40
2024-04-02T08:59:46.916Z,996.38
2024-04-02T09:00:46.892Z,996.40
2024-04-02T09:01:46.887Z,996.34
2024-04-02T09:02:46.874Z,996.41
2024-04-02T09:03:46.866Z,996.34
2024-04-02T09:04:46.856Z,996.45
2024-04-02T09:05:46.848Z,996.41
2024-04-02T09:06:46.825Z,996.48
2024-04-02T09:07:46.831Z,996.44
2024-04-02T09:08:46.809Z,996.38
2024-04-02T09:09:46.798Z,996.41
2024-04-02T09:10:46.815Z,996.58
2024-04-02T09:11:46.789Z,996.45
2024-04-02T09:12:46.768Z,996.50
2024-04-02T09:13:46.762Z,996.45
2024-04-02T09:14:46.759Z,996.49
2024-04-02T09:15:46.740Z,996.48
2024-04-02T09:16:46.718Z,996.62
2024-04-02T09:17:46.711Z,996.45
2024-04-02T09:18:46.703Z,996.51
2024-04-02T09:19:46.690Z,996.49
2024-04-02T09:20:46.706Z,996.49
2024-04-02T09:21:46.683Z,996.47
2024-04-02T09:22:46.652Z,996.64
2024-04-02T09:23:46.654Z,996.58
2024-04-02T09:24:46.650Z,996.57
2024-04-02T09:25:46.871Z,996.57
2024-04-02T09:26:46.611Z,996.53
2024-04-02T09:27:46.603Z,996.54
2024-04-02T09:28:46.586Z,996.48
2024-04-02T09:29:46.580Z,996.53
2024-04-02T09:30:46.606Z,996.58
2024-04-02T09:31:46.561Z,996.54
2024-04-02T09:32:46.543Z,996.39
2024-04-02T09:33:46.578Z,996.59
2024-04-02T09:34:46.529Z,996.63
2024-04-02T09:35:46.527Z,996.66
2024-04-02T09:36:46.514Z,996.59
2024-04-02T09:37:46.497Z,996.75
2024-04-02T09:38:46.512Z,996.62
2024-04-02T09:39:46.464Z,996.64
2024-04-02T09:40:46.496Z,996.66
2024-04-02T09:41:57.775Z,996.76
2024-04-02T09:42:46.433Z,996.67
2024-04-02T09:43:46.440Z,996.76
2024-04-02T09:44:46.575Z,996.66
2024-04-02T09:45:46.398Z,996.64
2024-04-02T09:46:46.477Z,996.51
2024-04-02T09:47:46.381Z,996.50
2024-04-02T09:48:46.373Z,996.58
2024-04-02T09:49:46.367Z,996.59
2024-04-02T09:50:46.345Z,996.64
2024-04-02T09:51:46.343Z,996.56
2024-04-02T09:52:46.336Z,996.59
2024-04-02T09:53:56.640Z,996.60
2024-04-02T09:54:46.305Z,996.66
2024-04-02T09:55:46.292Z,996.66
2024-04-02T09:56:46.293Z,996.73
2024-04-02T09:57:46.287Z,996.60
2024-04-02T09:58:46.284Z,996.55
2024-04-02T09:59:46.252Z,996.62
2024-04-02T10:00:46.243Z,996.64
2024-04-02T10:01:46.244Z,996.55
2024-04-02T10:02:46.226Z,996.64
2024-04-02T10:03:46.242Z,996.77
2024-04-02T10:04:46.229Z,996.67
2024-04-02T10:05:46.197Z,996.69
2024-04-02T10:06:55.439Z,996.70
2024-04-02T10:07:46.201Z,996.71
2024-04-02T10:08:46.188Z,996.75
2024-04-02T10:09:46.145Z,996.72
2024-04-02T10:10:46.184Z,996.68
2024-04-02T10:11:46.123Z,996.70
2024-04-02T10:12:46.113Z,996.68
2024-04-02T10:13:46.095Z,996.65
2024-04-02T10:14:46.091Z,996.75
2024-04-02T10:15:46.081Z,996.76
2024-04-02T10:16:46.144Z,996.59
2024-04-02T10:17:46.078Z,996.60
2024-04-02T10:18:46.141Z,996.56
2024-04-02T10:19:46.046Z,996.67
2024-04-02T10:20:46.023Z,996.73
2024-04-02T10:21:46.033Z,996.65
2024-04-02T10:22:46.011Z,996.71
2024-04-02T10:23:45.994Z,996.79
2024-04-02T10:24:45.978Z,996.75
2024-04-02T10:25:45.983Z,996.76
2024-04-02T10:26:45.984Z,996.79
2024-04-02T10:27:45.943Z,996.83
2024-04-02T10:28:45.935Z,996.84
2024-04-02T10:29:45.932Z,996.80
2024-04-02T10:30:45.910Z,996.84
2024-04-02T10:31:45.908Z,996.69
2024-04-02T10:32:45.908Z,996.77
2024-04-02T10:33:45.915Z,996.82
2024-04-02T10:34:46.631Z,996.88
2024-04-02T10:35:45.872Z,996.85
2024-04-02T10:36:45.866Z,996.83
2024-04-02T10:37:45.841Z,996.76
2024-04-02T10:38:45.826Z,996.80
2024-04-02T10:39:45.810Z,996.83
2024-04-02T10:40:45.807Z,996.83
2024-04-02T10:41:45.793Z,996.85
2024-04-02T10:42:45.799Z,996.81
2024-04-02T10:43:45.766Z,996.90
2024-04-02T10:44:45.777Z,996.81
2024-04-02T10:45:45.786Z,996.83
2024-04-02T10:46:45.758Z,996.77
2024-04-02T10:47:45.752Z,996.86
2024-04-02T10:48:45.732Z,996.85
2024-04-02T10:49:45.705Z,997.02
2024-04-02T10:50:45.699Z,996.90
2024-04-02T10:51:45.683Z,996.88
2024-04-02T10:52:45.675Z,996.98
2024-04-02T10:53:45.689Z,996.95
2024-04-02T10:54:45.658Z,996.96
2024-04-02T10:55:45.647Z,996.93
2024-04-02T10:56:45.630Z,997.29
2024-04-02T10:57:45.634Z,996.96
2024-04-02T10:58:45.617Z,996.97
2024-04-02T10:59:45.610Z,996.88
2024-04-02T11:00:45.591Z,996.99
2024-04-02T11:01:45.601Z,997.10
2024-04-02T11:02:45.596Z,997.01
2024-04-02T11:03:45.557Z,997.10
2024-04-02T11:04:45.571Z,997.08
2024-04-02T11:05:45.532Z,996.97
2024-04-02T11:06:45.543Z,997.08
2024-04-02T11:07:45.509Z,997.15
2024-04-02T11:08:45.506Z,997.11
2024-04-02T11:09:45.538Z,997.02
2024-04-02T11:10:45.478Z,997.03
2024-04-02T11:11:45.465Z,996.98
2024-04-02T11:12:45.479Z,996.99
2024-04-02T11:13:45.448Z,996.96
2024-04-02T11:14:46.385Z,996.90
2024-04-02T11:15:45.633Z,996.83
2024-04-02T11:16:45.472Z,996.90
2024-04-02T11:17:45.446Z,996.87
2024-04-02T11:18:45.408Z,996.92
2024-04-02T11:19:45.413Z,996.98
2024-04-02T11:20:45.374Z,996.98
2024-04-02T11:21:45.359Z,996.96
2024-04-02T11:22:45.354Z,996.99
2024-04-02T11:23:46.917Z,997.04
2024-04-02T11:24:45.332Z,997.09
2024-04-02T11:25:45.337Z,997.09
2024-04-02T11:26:45.308Z,997.13
2024-04-02T11:27:45.297Z,997.14
2024-04-02T11:28:45.570Z,997.15
2024-04-02T11:29:45.303Z,997.16
2024-04-02T11:30:45.278Z,997.18
2024-04-02T11:31:45.263Z,997.22
2024-04-02T11:32:45.240Z,997.31
2024-04-02T11:33:45.228Z,997.28
2024-04-02T11:34:45.248Z,997.32
2024-04-02T11:35:45.212Z,997.39
2024-04-02T11:36:45.213Z,997.22
2024-04-02T11:37:45.223Z,997.35
2024-04-02T11:38:45.171Z,997.26
2024-04-02T11:39:54.039Z,997.41
2024-04-02T11:40:45.155Z,997.41
2024-04-02T11:41:45.169Z,997.39
2024-04-02T11:42:45.127Z,997.35
2024-04-02T11:43:45.121Z,997.37
2024-04-02T11:44:45.135Z,997.45
2024-04-02T11:45:45.096Z,997.41
2024-04-02T11:46:45.091Z,997.40
2024-04-02T11:47:45.086Z,997.38
2024-04-02T11:48:45.060Z,997.46
2024-04-02T11:49:45.128Z,997.36
2024-04-02T11:50:45.068Z,997.41
2024-04-02T11:51:45.032Z,997.34
2024-04-02T11:52:45.015Z,997.35
2024-04-02T11:53:45.025Z,997.33
2024-04-02T11:54:45.040Z,997.32
2024-04-02T11:55:44.999Z,997.38
2024-04-02T11:56:44.993Z,997.45
2024-04-02T11:57:44.980Z,997.47
2024-04-02T11:58:44.952Z,997.45
2024-04-02T11:59:44.955Z,997.60
2024-04-02T12:00:44.942Z,997.52
2024-04-02T12:01:44.927Z,997.45
2024-04-02T12:02:44.918Z,997.45
2024-04-02T12:03:44.902Z,997.53
2024-04-02T12:04:44.970Z,997.53
2024-04-02T12:05:44.909Z,997.50
2024-04-02T12:06:45.839Z,997.54
2024-04-02T12:07:44.867Z,997.45
2024-04-02T12:08:44.843Z,997.64
2024-04-02T12:09:44.834Z,997.56
2024-04-02T12:10:44.839Z,997.60
2024-04-02T12:11:44.838Z,997.62
2024-04-02T12:12:44.800Z,997.63
2024-04-02T12:13:44.791Z,997.71
2024-04-02T12:14:44.779Z,997.63
2024-04-02T12:15:44.775Z,997.56
2024-04-02T12:16:44.893Z,997.48
2024-04-02T12:17:47.725Z,997.41
2024-04-02T12:18:44.769Z,997.48
2024-04-02T12:19:44.731Z,997.44
2024-04-02T12:20:44.728Z,997.44
2024-04-02T12:21:44.711Z,997.49
2024-04-02T12:22:44.694Z,997.49
2024-04-02T12:23:44.707Z,997.43
2024-04-02T12:24:46.076Z,997.53
2024-04-02T12:25:44.666Z,997.56
2024-04-02T12:26:44.647Z,997.47
2024-04-02T12:27:44.639Z,997.52
2024-04-02T12:28:44.659Z,997.51
2024-04-02T12:29:44.617Z,997.53